sensor_id;sensor_type;location;lat;lon;timestamp;P1;durP1;ratioP1;P2;durP2;ratioP2
2023;SDS011;1016;48.770;9.154;2023-02-07T00:00:13;23.47;;;7.60;;
2023;SDS011;1016;48.770;9.154;2023-02-07T00:02:44;22.93;;;6.53;;
2023;SDS011;1016;48.770;9.154;2023-02-07T00:05:11;22.50;;;6.87;;
2023;SDS011;1016;48.770;9.154;2023-02-07T00:07:37;22.73;;;6.53;;
2023;SDS011;1016;48.770;9.154;2023-02-07T00:10:04;22.80;;;6.47;;
2023;SDS011;1016;48.770;9.154;2023-02-07T00:12:30;22.77;;;6.33;;
2023;SDS011;1016;48.770;9.154;2023-02-07T00:14:56;22.50;;;6.20;;
2023;SDS011;1016;48.770;9.154;2023-02-07T00:17:22;21.60;;;6.13;;
2023;SDS011;1016;48.770;9.154;2023-02-07T00:19:48;22.17;;;6.20;;
2023;SDS011;1016;48.770;9.154;2023-02-07T00:22:13;21.83;;;6.33;;
2023;SDS011;1016;48.770;9.154;2023-02-07T00:24:39;21.60;;;5.60;;
2023;SDS011;1016;48.770;9.154;2023-02-07T00:27:04;23.50;;;6.53;;
2023;SDS011;1016;48.770;9.154;2023-02-07T00:29:30;22.33;;;6.07;;
2023;SDS011;1016;48.770;9.154;2023-02-07T00:31:56;22.37;;;6.10;;
2023;SDS011;1016;48.770;9.154;2023-02-07T00:34:22;23.67;;;5.73;;
2023;SDS011;1016;48.770;9.154;2023-02-07T00:36:48;23.30;;;5.57;;
2023;SDS011;1016;48.770;9.154;2023-02-07T00:39:14;29.37;;;6.00;;
2023;SDS011;1016;48.770;9.154;2023-02-07T00:41:40;25.13;;;6.17;;
2023;SDS011;1016;48.770;9.154;2023-02-07T00:44:07;21.83;;;5.57;;
2023;SDS011;1016;48.770;9.154;2023-02-07T00:46:34;21.73;;;5.50;;
2023;SDS011;1016;48.770;9.154;2023-02-07T00:49:00;21.37;;;5.50;;
2023;SDS011;1016;48.770;9.154;2023-02-07T00:51:26;21.30;;;5.50;;
2023;SDS011;1016;48.770;9.154;2023-02-07T00:53:52;21.50;;;5.63;;
2023;SDS011;1016;48.770;9.154;2023-02-07T00:56:18;21.37;;;5.60;;
2023;SDS011;1016;48.770;9.154;2023-02-07T00:58:45;21.30;;;5.63;;
2023;SDS011;1016;48.770;9.154;2023-02-07T01:01:10;22.87;;;5.97;;
2023;SDS011;1016;48.770;9.154;2023-02-07T01:03:36;22.73;;;6.10;;
2023;SDS011;1016;48.770;9.154;2023-02-07T01:06:02;21.67;;;5.90;;
2023;SDS011;1016;48.770;9.154;2023-02-07T01:08:28;23.17;;;5.83;;
2023;SDS011;1016;48.770;9.154;2023-02-07T01:10:53;21.20;;;5.77;;
2023;SDS011;1016;48.770;9.154;2023-02-07T01:13:19;25.37;;;6.60;;
2023;SDS011;1016;48.770;9.154;2023-02-07T01:15:45;22.27;;;6.67;;
2023;SDS011;1016;48.770;9.154;2023-02-07T01:18:12;22.87;;;6.80;;
2023;SDS011;1016;48.770;9.154;2023-02-07T01:20:38;24.97;;;7.17;;
2023;SDS011;1016;48.770;9.154;2023-02-07T01:23:04;22.47;;;6.90;;
2023;SDS011;1016;48.770;9.154;2023-02-07T01:25:30;23.27;;;6.97;;
2023;SDS011;1016;48.770;9.154;2023-02-07T01:27:56;25.23;;;7.00;;
2023;SDS011;1016;48.770;9.154;2023-02-07T01:30:21;23.20;;;6.80;;
2023;SDS011;1016;48.770;9.154;2023-02-07T01:32:47;24.90;;;7.67;;
2023;SDS011;1016;48.770;9.154;2023-02-07T01:35:13;23.17;;;6.90;;
2023;SDS011;1016;48.770;9.154;2023-02-07T01:37:38;25.70;;;7.93;;
2023;SDS011;1016;48.770;9.154;2023-02-07T01:40:04;24.23;;;7.37;;
2023;SDS011;1016;48.770;9.154;2023-02-07T01:42:30;25.80;;;8.20;;
2023;SDS011;1016;48.770;9.154;2023-02-07T01:45:00;25.30;;;7.90;;
2023;SDS011;1016;48.770;9.154;2023-02-07T01:47:36;25.97;;;8.10;;
2023;SDS011;1016;48.770;9.154;2023-02-07T01:50:02;24.33;;;7.60;;
2023;SDS011;1016;48.770;9.154;2023-02-07T01:52:32;24.50;;;8.73;;
2023;SDS011;1016;48.770;9.154;2023-02-07T01:55:05;26.10;;;8.07;;
2023;SDS011;1016;48.770;9.154;2023-02-07T01:57:33;26.27;;;8.60;;
2023;SDS011;1016;48.770;9.154;2023-02-07T01:59:59;26.37;;;9.20;;
2023;SDS011;1016;48.770;9.154;2023-02-07T02:02:27;26.30;;;9.03;;
2023;SDS011;1016;48.770;9.154;2023-02-07T02:04:55;26.57;;;9.10;;
2023;SDS011;1016;48.770;9.154;2023-02-07T02:07:22;27.10;;;9.53;;
2023;SDS011;1016;48.770;9.154;2023-02-07T02:09:49;26.60;;;9.23;;
2023;SDS011;1016;48.770;9.154;2023-02-07T02:12:23;26.60;;;9.90;;
2023;SDS011;1016;48.770;9.154;2023-02-07T02:17:57;25.30;;;9.43;;
2023;SDS011;1016;48.770;9.154;2023-02-07T02:20:31;28.27;;;8.87;;
2023;SDS011;1016;48.770;9.154;2023-02-07T02:26:48;25.73;;;9.20;;
2023;SDS011;1016;48.770;9.154;2023-02-07T02:37:57;25.50;;;8.87;;
2023;SDS011;1016;48.770;9.154;2023-02-07T02:40:39;24.33;;;8.13;;
2023;SDS011;1016;48.770;9.154;2023-02-07T02:43:30;24.33;;;7.87;;
2023;SDS011;1016;48.770;9.154;2023-02-07T02:46:15;25.87;;;9.20;;
2023;SDS011;1016;48.770;9.154;2023-02-07T02:48:46;27.57;;;10.40;;
2023;SDS011;1016;48.770;9.154;2023-02-07T02:51:13;25.40;;;8.93;;
2023;SDS011;1016;48.770;9.154;2023-02-07T02:53:38;26.03;;;8.87;;
2023;SDS011;1016;48.770;9.154;2023-02-07T03:07:32;25.97;;;9.23;;
2023;SDS011;1016;48.770;9.154;2023-02-07T03:10:31;25.40;;;8.87;;
2023;SDS011;1016;48.770;9.154;2023-02-07T03:16:10;27.33;;;9.03;;
2023;SDS011;1016;48.770;9.154;2023-02-07T03:24:16;28.80;;;10.10;;
2023;SDS011;1016;48.770;9.154;2023-02-07T03:26:46;25.87;;;9.27;;
2023;SDS011;1016;48.770;9.154;2023-02-07T03:29:14;25.77;;;9.27;;
2023;SDS011;1016;48.770;9.154;2023-02-07T03:31:42;24.10;;;9.47;;
2023;SDS011;1016;48.770;9.154;2023-02-07T03:34:14;25.53;;;9.50;;
2023;SDS011;1016;48.770;9.154;2023-02-07T03:36:54;26.10;;;10.10;;
2023;SDS011;1016;48.770;9.154;2023-02-07T03:39:23;25.90;;;9.77;;
2023;SDS011;1016;48.770;9.154;2023-02-07T03:41:57;25.27;;;9.43;;
2023;SDS011;1016;48.770;9.154;2023-02-07T03:44:26;26.07;;;9.80;;
2023;SDS011;1016;48.770;9.154;2023-02-07T03:46:55;28.63;;;10.13;;
2023;SDS011;1016;48.770;9.154;2023-02-07T03:49:21;26.60;;;10.00;;
2023;SDS011;1016;48.770;9.154;2023-02-07T03:51:47;25.70;;;10.53;;
2023;SDS011;1016;48.770;9.154;2023-02-07T03:54:13;25.80;;;9.80;;
2023;SDS011;1016;48.770;9.154;2023-02-07T03:56:39;27.93;;;11.77;;
2023;SDS011;1016;48.770;9.154;2023-02-07T03:59:04;25.30;;;9.73;;
2023;SDS011;1016;48.770;9.154;2023-02-07T04:01:30;26.30;;;9.57;;
2023;SDS011;1016;48.770;9.154;2023-02-07T04:03:55;25.43;;;10.40;;
2023;SDS011;1016;48.770;9.154;2023-02-07T04:06:21;25.20;;;9.20;;
2023;SDS011;1016;48.770;9.154;2023-02-07T04:08:47;28.77;;;10.47;;
2023;SDS011;1016;48.770;9.154;2023-02-07T04:11:12;27.20;;;10.17;;
2023;SDS011;1016;48.770;9.154;2023-02-07T04:13:38;28.50;;;10.30;;
2023;SDS011;1016;48.770;9.154;2023-02-07T04:16:04;26.50;;;10.20;;
2023;SDS011;1016;48.770;9.154;2023-02-07T04:18:30;27.53;;;10.90;;
2023;SDS011;1016;48.770;9.154;2023-02-07T04:21:02;27.67;;;10.30;;
2023;SDS011;1016;48.770;9.154;2023-02-07T04:23:29;26.30;;;9.30;;
2023;SDS011;1016;48.770;9.154;2023-02-07T04:25:55;28.10;;;10.67;;
2023;SDS011;1016;48.770;9.154;2023-02-07T04:28:21;25.97;;;10.30;;
2023;SDS011;1016;48.770;9.154;2023-02-07T04:30:46;26.90;;;10.13;;
2023;SDS011;1016;48.770;9.154;2023-02-07T04:33:12;29.50;;;10.60;;
2023;SDS011;1016;48.770;9.154;2023-02-07T04:35:37;27.30;;;10.93;;
2023;SDS011;1016;48.770;9.154;2023-02-07T04:38:03;28.47;;;10.77;;
2023;SDS011;1016;48.770;9.154;2023-02-07T04:40:29;26.90;;;11.30;;
2023;SDS011;1016;48.770;9.154;2023-02-07T04:42:54;29.70;;;10.97;;
2023;SDS011;1016;48.770;9.154;2023-02-07T04:45:20;31.87;;;10.13;;
2023;SDS011;1016;48.770;9.154;2023-02-07T04:47:45;27.63;;;11.00;;
2023;SDS011;1016;48.770;9.154;2023-02-07T04:50:11;27.30;;;10.40;;
2023;SDS011;1016;48.770;9.154;2023-02-07T04:52:37;28.10;;;10.47;;
2023;SDS011;1016;48.770;9.154;2023-02-07T04:55:04;25.30;;;9.40;;
2023;SDS011;1016;48.770;9.154;2023-02-07T04:57:30;28.57;;;9.30;;
2023;SDS011;1016;48.770;9.154;2023-02-07T04:59:56;26.57;;;9.33;;
2023;SDS011;1016;48.770;9.154;2023-02-07T05:02:21;29.60;;;9.97;;
2023;SDS011;1016;48.770;9.154;2023-02-07T05:04:47;28.07;;;9.27;;
2023;SDS011;1016;48.770;9.154;2023-02-07T05:07:12;26.90;;;9.20;;
2023;SDS011;1016;48.770;9.154;2023-02-07T05:09:38;25.23;;;9.17;;
2023;SDS011;1016;48.770;9.154;2023-02-07T05:12:03;25.80;;;8.93;;
2023;SDS011;1016;48.770;9.154;2023-02-07T05:14:29;28.33;;;9.90;;
2023;SDS011;1016;48.770;9.154;2023-02-07T05:16:54;25.40;;;9.03;;
2023;SDS011;1016;48.770;9.154;2023-02-07T05:19:20;26.80;;;9.30;;
2023;SDS011;1016;48.770;9.154;2023-02-07T05:21:46;27.27;;;9.50;;
2023;SDS011;1016;48.770;9.154;2023-02-07T05:24:11;25.00;;;8.73;;
2023;SDS011;1016;48.770;9.154;2023-02-07T05:26:37;27.07;;;9.20;;
2023;SDS011;1016;48.770;9.154;2023-02-07T05:29:02;27.90;;;9.43;;
2023;SDS011;1016;48.770;9.154;2023-02-07T05:31:28;27.20;;;9.67;;
2023;SDS011;1016;48.770;9.154;2023-02-07T05:34:12;30.37;;;9.60;;
2023;SDS011;1016;48.770;9.154;2023-02-07T05:36:37;25.73;;;9.30;;
2023;SDS011;1016;48.770;9.154;2023-02-07T05:39:03;30.63;;;10.30;;
2023;SDS011;1016;48.770;9.154;2023-02-07T05:41:29;25.80;;;9.60;;
2023;SDS011;1016;48.770;9.154;2023-02-07T05:43:54;25.87;;;9.13;;
2023;SDS011;1016;48.770;9.154;2023-02-07T05:46:20;25.50;;;8.73;;
2023;SDS011;1016;48.770;9.154;2023-02-07T05:48:45;28.27;;;10.37;;
2023;SDS011;1016;48.770;9.154;2023-02-07T05:51:11;26.37;;;9.30;;
2023;SDS011;1016;48.770;9.154;2023-02-07T05:53:36;27.10;;;10.00;;
2023;SDS011;1016;48.770;9.154;2023-02-07T05:56:02;26.10;;;8.90;;
2023;SDS011;1016;48.770;9.154;2023-02-07T05:58:27;24.70;;;8.30;;
2023;SDS011;1016;48.770;9.154;2023-02-07T06:00:53;25.73;;;9.50;;
2023;SDS011;1016;48.770;9.154;2023-02-07T06:03:19;27.30;;;9.20;;
2023;SDS011;1016;48.770;9.154;2023-02-07T06:05:45;28.07;;;8.67;;
2023;SDS011;1016;48.770;9.154;2023-02-07T06:08:10;26.87;;;9.03;;
2023;SDS011;1016;48.770;9.154;2023-02-07T06:10:36;26.53;;;9.20;;
2023;SDS011;1016;48.770;9.154;2023-02-07T06:13:01;27.80;;;9.30;;
2023;SDS011;1016;48.770;9.154;2023-02-07T06:15:27;26.67;;;8.87;;
2023;SDS011;1016;48.770;9.154;2023-02-07T06:17:52;25.17;;;8.40;;
2023;SDS011;1016;48.770;9.154;2023-02-07T06:20:18;26.67;;;8.60;;
2023;SDS011;1016;48.770;9.154;2023-02-07T06:22:44;25.10;;;8.20;;
2023;SDS011;1016;48.770;9.154;2023-02-07T06:25:09;23.07;;;7.60;;
2023;SDS011;1016;48.770;9.154;2023-02-07T06:27:36;24.23;;;7.27;;
2023;SDS011;1016;48.770;9.154;2023-02-07T06:30:05;23.90;;;7.10;;
2023;SDS011;1016;48.770;9.154;2023-02-07T06:32:32;23.50;;;7.37;;
2023;SDS011;1016;48.770;9.154;2023-02-07T06:34:58;23.73;;;7.77;;
2023;SDS011;1016;48.770;9.154;2023-02-07T06:37:23;23.47;;;6.90;;
2023;SDS011;1016;48.770;9.154;2023-02-07T06:39:49;23.23;;;7.30;;
2023;SDS011;1016;48.770;9.154;2023-02-07T06:42:14;25.90;;;8.10;;
2023;SDS011;1016;48.770;9.154;2023-02-07T06:44:40;24.87;;;7.87;;
2023;SDS011;1016;48.770;9.154;2023-02-07T06:47:05;23.37;;;7.43;;
2023;SDS011;1016;48.770;9.154;2023-02-07T06:49:31;23.90;;;8.00;;
2023;SDS011;1016;48.770;9.154;2023-02-07T06:51:56;24.93;;;8.20;;
2023;SDS011;1016;48.770;9.154;2023-02-07T06:54:22;25.83;;;8.23;;
2023;SDS011;1016;48.770;9.154;2023-02-07T06:56:47;24.33;;;7.50;;
2023;SDS011;1016;48.770;9.154;2023-02-07T06:59:13;25.40;;;7.93;;
2023;SDS011;1016;48.770;9.154;2023-02-07T07:01:38;26.80;;;8.10;;
2023;SDS011;1016;48.770;9.154;2023-02-07T07:04:04;24.07;;;8.10;;
2023;SDS011;1016;48.770;9.154;2023-02-07T07:06:30;23.27;;;6.97;;
2023;SDS011;1016;48.770;9.154;2023-02-07T07:08:55;24.23;;;7.97;;
2023;SDS011;1016;48.770;9.154;2023-02-07T07:11:21;27.53;;;9.17;;
2023;SDS011;1016;48.770;9.154;2023-02-07T07:13:47;25.03;;;7.40;;
2023;SDS011;1016;48.770;9.154;2023-02-07T07:16:13;24.30;;;7.93;;
2023;SDS011;1016;48.770;9.154;2023-02-07T07:18:39;26.77;;;8.00;;
2023;SDS011;1016;48.770;9.154;2023-02-07T07:21:04;24.57;;;7.63;;
2023;SDS011;1016;48.770;9.154;2023-02-07T07:23:30;25.87;;;8.27;;
2023;SDS011;1016;48.770;9.154;2023-02-07T07:25:56;25.40;;;8.73;;
2023;SDS011;1016;48.770;9.154;2023-02-07T07:28:21;24.13;;;7.90;;
2023;SDS011;1016;48.770;9.154;2023-02-07T07:30:47;25.40;;;8.47;;
2023;SDS011;1016;48.770;9.154;2023-02-07T07:33:12;26.53;;;8.50;;
2023;SDS011;1016;48.770;9.154;2023-02-07T07:35:38;27.07;;;8.03;;
2023;SDS011;1016;48.770;9.154;2023-02-07T07:38:03;26.53;;;9.10;;
2023;SDS011;1016;48.770;9.154;2023-02-07T07:40:29;27.80;;;8.70;;
2023;SDS011;1016;48.770;9.154;2023-02-07T07:42:54;27.50;;;8.40;;
2023;SDS011;1016;48.770;9.154;2023-02-07T07:45:20;28.53;;;9.60;;
2023;SDS011;1016;48.770;9.154;2023-02-07T07:47:45;25.57;;;8.70;;
2023;SDS011;1016;48.770;9.154;2023-02-07T07:50:11;24.70;;;8.77;;
2023;SDS011;1016;48.770;9.154;2023-02-07T07:52:37;26.23;;;9.77;;
2023;SDS011;1016;48.770;9.154;2023-02-07T07:55:03;31.20;;;9.80;;
2023;SDS011;1016;48.770;9.154;2023-02-07T07:57:28;31.00;;;9.30;;
2023;SDS011;1016;48.770;9.154;2023-02-07T07:59:54;24.73;;;8.80;;
2023;SDS011;1016;48.770;9.154;2023-02-07T08:02:20;25.87;;;8.30;;
2023;SDS011;1016;48.770;9.154;2023-02-07T08:04:48;26.70;;;10.13;;
2023;SDS011;1016;48.770;9.154;2023-02-07T08:07:14;26.60;;;9.53;;
2023;SDS011;1016;48.770;9.154;2023-02-07T08:09:42;24.43;;;8.53;;
2023;SDS011;1016;48.770;9.154;2023-02-07T08:12:14;26.40;;;8.60;;
2023;SDS011;1016;48.770;9.154;2023-02-07T08:14:39;27.53;;;9.83;;
2023;SDS011;1016;48.770;9.154;2023-02-07T08:17:05;28.10;;;10.00;;
2023;SDS011;1016;48.770;9.154;2023-02-07T08:19:30;25.50;;;9.37;;
2023;SDS011;1016;48.770;9.154;2023-02-07T08:21:56;30.73;;;11.83;;
2023;SDS011;1016;48.770;9.154;2023-02-07T08:24:21;27.57;;;9.83;;
2023;SDS011;1016;48.770;9.154;2023-02-07T08:26:47;30.03;;;9.33;;
2023;SDS011;1016;48.770;9.154;2023-02-07T08:29:12;27.53;;;8.97;;
2023;SDS011;1016;48.770;9.154;2023-02-07T08:31:38;29.83;;;10.17;;
2023;SDS011;1016;48.770;9.154;2023-02-07T08:34:03;24.17;;;9.10;;
2023;SDS011;1016;48.770;9.154;2023-02-07T08:36:30;28.17;;;10.10;;
2023;SDS011;1016;48.770;9.154;2023-02-07T08:38:55;27.07;;;9.53;;
2023;SDS011;1016;48.770;9.154;2023-02-07T08:41:21;26.40;;;9.13;;
2023;SDS011;1016;48.770;9.154;2023-02-07T08:43:46;27.00;;;9.07;;
2023;SDS011;1016;48.770;9.154;2023-02-07T08:46:12;25.47;;;9.10;;
2023;SDS011;1016;48.770;9.154;2023-02-07T08:48:37;24.13;;;8.47;;
2023;SDS011;1016;48.770;9.154;2023-02-07T08:51:06;26.37;;;8.50;;
2023;SDS011;1016;48.770;9.154;2023-02-07T08:53:33;27.07;;;9.40;;
2023;SDS011;1016;48.770;9.154;2023-02-07T08:55:59;28.90;;;9.37;;
2023;SDS011;1016;48.770;9.154;2023-02-07T08:58:24;23.60;;;7.70;;
2023;SDS011;1016;48.770;9.154;2023-02-07T09:00:50;28.70;;;8.23;;
2023;SDS011;1016;48.770;9.154;2023-02-07T09:03:16;23.30;;;8.03;;
2023;SDS011;1016;48.770;9.154;2023-02-07T09:05:41;24.53;;;8.30;;
2023;SDS011;1016;48.770;9.154;2023-02-07T09:08:07;25.97;;;8.20;;
2023;SDS011;1016;48.770;9.154;2023-02-07T09:10:32;26.97;;;9.27;;
2023;SDS011;1016;48.770;9.154;2023-02-07T09:12:58;25.07;;;8.53;;
2023;SDS011;1016;48.770;9.154;2023-02-07T09:15:23;26.23;;;8.87;;
2023;SDS011;1016;48.770;9.154;2023-02-07T09:17:50;23.77;;;8.33;;
2023;SDS011;1016;48.770;9.154;2023-02-07T09:20:15;27.57;;;8.97;;
2023;SDS011;1016;48.770;9.154;2023-02-07T09:22:42;27.07;;;8.97;;
2023;SDS011;1016;48.770;9.154;2023-02-07T09:25:40;27.33;;;8.80;;
2023;SDS011;1016;48.770;9.154;2023-02-07T09:28:05;27.03;;;8.70;;
2023;SDS011;1016;48.770;9.154;2023-02-07T09:30:31;26.10;;;8.23;;
2023;SDS011;1016;48.770;9.154;2023-02-07T09:32:56;24.80;;;8.20;;
2023;SDS011;1016;48.770;9.154;2023-02-07T09:35:22;24.20;;;7.63;;
2023;SDS011;1016;48.770;9.154;2023-02-07T09:37:51;28.70;;;8.40;;
2023;SDS011;1016;48.770;9.154;2023-02-07T09:40:18;23.00;;;7.93;;
2023;SDS011;1016;48.770;9.154;2023-02-07T09:42:57;26.57;;;8.00;;
2023;SDS011;1016;48.770;9.154;2023-02-07T09:45:46;25.17;;;8.70;;
2023;SDS011;1016;48.770;9.154;2023-02-07T09:49:03;25.83;;;8.90;;
2023;SDS011;1016;48.770;9.154;2023-02-07T09:51:14;24.47;;;7.83;;
2023;SDS011;1016;48.770;9.154;2023-02-07T09:53:44;26.97;;;8.77;;
2023;SDS011;1016;48.770;9.154;2023-02-07T09:56:14;27.63;;;9.20;;
2023;SDS011;1016;48.770;9.154;2023-02-07T10:01:19;25.43;;;7.93;;
2023;SDS011;1016;48.770;9.154;2023-02-07T10:06:26;31.33;;;8.70;;
2023;SDS011;1016;48.770;9.154;2023-02-07T10:09:00;26.27;;;8.50;;
2023;SDS011;1016;48.770;9.154;2023-02-07T10:11:31;24.87;;;7.87;;
2023;SDS011;1016;48.770;9.154;2023-02-07T10:20:15;25.07;;;9.00;;
2023;SDS011;1016;48.770;9.154;2023-02-07T10:23:11;30.10;;;8.80;;
2023;SDS011;1016;48.770;9.154;2023-02-07T10:28:43;27.60;;;10.00;;
2023;SDS011;1016;48.770;9.154;2023-02-07T10:31:27;25.93;;;9.20;;
2023;SDS011;1016;48.770;9.154;2023-02-07T10:34:17;26.47;;;9.63;;
2023;SDS011;1016;48.770;9.154;2023-02-07T10:36:47;25.67;;;8.83;;
2023;SDS011;1016;48.770;9.154;2023-02-07T10:41:46;25.50;;;9.40;;
2023;SDS011;1016;48.770;9.154;2023-02-07T10:44:16;26.83;;;9.27;;
2023;SDS011;1016;48.770;9.154;2023-02-07T10:46:44;26.40;;;9.10;;
2023;SDS011;1016;48.770;9.154;2023-02-07T10:49:31;24.33;;;8.80;;
2023;SDS011;1016;48.770;9.154;2023-02-07T10:54:55;28.87;;;9.27;;
2023;SDS011;1016;48.770;9.154;2023-02-07T10:57:26;24.93;;;8.67;;
2023;SDS011;1016;48.770;9.154;2023-02-07T11:00:00;24.47;;;8.70;;
2023;SDS011;1016;48.770;9.154;2023-02-07T11:05:03;25.97;;;9.47;;
2023;SDS011;1016;48.770;9.154;2023-02-07T11:10:41;27.63;;;9.93;;
2023;SDS011;1016;48.770;9.154;2023-02-07T11:13:11;23.67;;;9.03;;
2023;SDS011;1016;48.770;9.154;2023-02-07T11:15:45;24.90;;;9.27;;
2023;SDS011;1016;48.770;9.154;2023-02-07T11:21:06;25.57;;;9.40;;
2023;SDS011;1016;48.770;9.154;2023-02-07T11:23:45;29.40;;;9.60;;
2023;SDS011;1016;48.770;9.154;2023-02-07T11:26:12;33.50;;;10.40;;
2023;SDS011;1016;48.770;9.154;2023-02-07T11:28:40;36.07;;;10.80;;
2023;SDS011;1016;48.770;9.154;2023-02-07T11:31:08;32.53;;;10.70;;
2023;SDS011;1016;48.770;9.154;2023-02-07T11:33:36;25.40;;;9.17;;
2023;SDS011;1016;48.770;9.154;2023-02-07T11:36:09;28.67;;;8.73;;
2023;SDS011;1016;48.770;9.154;2023-02-07T11:38:38;25.23;;;9.57;;
2023;SDS011;1016;48.770;9.154;2023-02-07T11:41:21;28.20;;;9.20;;
2023;SDS011;1016;48.770;9.154;2023-02-07T11:46:33;25.77;;;9.73;;
2023;SDS011;1016;48.770;9.154;2023-02-07T11:49:05;26.87;;;9.03;;
2023;SDS011;1016;48.770;9.154;2023-02-07T11:51:42;25.37;;;9.00;;
2023;SDS011;1016;48.770;9.154;2023-02-07T11:54:08;26.23;;;9.87;;
2023;SDS011;1016;48.770;9.154;2023-02-07T11:59:04;24.63;;;9.40;;
2023;SDS011;1016;48.770;9.154;2023-02-07T12:01:33;26.47;;;9.90;;
2023;SDS011;1016;48.770;9.154;2023-02-07T12:04:01;26.37;;;9.93;;
2023;SDS011;1016;48.770;9.154;2023-02-07T12:06:55;26.50;;;9.30;;
2023;SDS011;1016;48.770;9.154;2023-02-07T12:12:12;26.30;;;10.27;;
2023;SDS011;1016;48.770;9.154;2023-02-07T12:14:53;26.00;;;9.97;;
2023;SDS011;1016;48.770;9.154;2023-02-07T12:17:28;42.57;;;12.00;;
2023;SDS011;1016;48.770;9.154;2023-02-07T12:19:59;25.63;;;9.23;;
2023;SDS011;1016;48.770;9.154;2023-02-07T12:22:39;26.17;;;8.97;;
2023;SDS011;1016;48.770;9.154;2023-02-07T12:25:18;24.80;;;9.40;;
2023;SDS011;1016;48.770;9.154;2023-02-07T12:27:46;26.00;;;9.30;;
2023;SDS011;1016;48.770;9.154;2023-02-07T12:30:28;24.73;;;9.47;;
2023;SDS011;1016;48.770;9.154;2023-02-07T12:33:03;27.50;;;10.83;;
2023;SDS011;1016;48.770;9.154;2023-02-07T12:35:47;28.97;;;11.17;;
2023;SDS011;1016;48.770;9.154;2023-02-07T12:38:25;25.43;;;10.40;;
2023;SDS011;1016;48.770;9.154;2023-02-07T12:41:01;27.43;;;10.47;;
2023;SDS011;1016;48.770;9.154;2023-02-07T12:43:38;27.33;;;10.60;;
2023;SDS011;1016;48.770;9.154;2023-02-07T12:49:43;31.93;;;13.57;;
2023;SDS011;1016;48.770;9.154;2023-02-07T12:58:03;25.80;;;9.73;;
2023;SDS011;1016;48.770;9.154;2023-02-07T13:09:27;25.53;;;10.00;;
2023;SDS011;1016;48.770;9.154;2023-02-07T13:12:15;25.30;;;10.40;;
2023;SDS011;1016;48.770;9.154;2023-02-07T13:20:14;23.47;;;8.60;;
2023;SDS011;1016;48.770;9.154;2023-02-07T13:23:04;26.67;;;8.90;;
2023;SDS011;1016;48.770;9.154;2023-02-07T13:25:43;35.83;;;11.27;;
2023;SDS011;1016;48.770;9.154;2023-02-07T13:31:19;23.03;;;8.10;;
2023;SDS011;1016;48.770;9.154;2023-02-07T13:33:49;23.63;;;8.87;;
2023;SDS011;1016;48.770;9.154;2023-02-07T13:41:34;23.73;;;8.70;;
2023;SDS011;1016;48.770;9.154;2023-02-07T13:51:57;23.70;;;9.20;;
2023;SDS011;1016;48.770;9.154;2023-02-07T13:54:36;25.33;;;9.60;;
2023;SDS011;1016;48.770;9.154;2023-02-07T14:00:23;24.10;;;9.33;;
2023;SDS011;1016;48.770;9.154;2023-02-07T14:02:52;24.53;;;9.10;;
2023;SDS011;1016;48.770;9.154;2023-02-07T14:05:40;24.60;;;8.93;;
2023;SDS011;1016;48.770;9.154;2023-02-07T14:10:43;24.10;;;8.60;;
2023;SDS011;1016;48.770;9.154;2023-02-07T14:13:19;24.60;;;8.90;;
2023;SDS011;1016;48.770;9.154;2023-02-07T14:15:54;23.97;;;8.97;;
2023;SDS011;1016;48.770;9.154;2023-02-07T14:21:26;25.23;;;9.23;;
2023;SDS011;1016;48.770;9.154;2023-02-07T14:31:53;24.30;;;8.57;;
2023;SDS011;1016;48.770;9.154;2023-02-07T14:34:19;23.97;;;8.57;;
2023;SDS011;1016;48.770;9.154;2023-02-07T14:36:46;24.90;;;9.13;;
2023;SDS011;1016;48.770;9.154;2023-02-07T14:41:46;26.43;;;9.13;;
2023;SDS011;1016;48.770;9.154;2023-02-07T14:46:52;26.10;;;8.80;;
2023;SDS011;1016;48.770;9.154;2023-02-07T14:49:30;25.93;;;8.90;;
2023;SDS011;1016;48.770;9.154;2023-02-07T14:56:01;25.67;;;9.37;;
2023;SDS011;1016;48.770;9.154;2023-02-07T14:58:35;25.10;;;7.50;;
2023;SDS011;1016;48.770;9.154;2023-02-07T15:04:06;22.90;;;7.27;;
2023;SDS011;1016;48.770;9.154;2023-02-07T15:06:38;25.80;;;8.30;;
2023;SDS011;1016;48.770;9.154;2023-02-07T15:09:10;24.43;;;7.27;;
2023;SDS011;1016;48.770;9.154;2023-02-07T15:11:43;22.50;;;7.00;;
2023;SDS011;1016;48.770;9.154;2023-02-07T15:14:13;22.77;;;7.60;;
2023;SDS011;1016;48.770;9.154;2023-02-07T15:16:48;26.10;;;7.57;;
2023;SDS011;1016;48.770;9.154;2023-02-07T15:19:18;26.07;;;7.10;;
2023;SDS011;1016;48.770;9.154;2023-02-07T15:21:47;24.37;;;8.40;;
2023;SDS011;1016;48.770;9.154;2023-02-07T15:24:26;24.37;;;7.57;;
2023;SDS011;1016;48.770;9.154;2023-02-07T15:27:00;23.63;;;7.20;;
2023;SDS011;1016;48.770;9.154;2023-02-07T15:29:34;22.90;;;6.97;;
2023;SDS011;1016;48.770;9.154;2023-02-07T15:32:10;24.23;;;7.10;;
2023;SDS011;1016;48.770;9.154;2023-02-07T15:34:46;23.63;;;6.57;;
2023;SDS011;1016;48.770;9.154;2023-02-07T15:37:14;24.43;;;6.90;;
2023;SDS011;1016;48.770;9.154;2023-02-07T15:39:43;22.60;;;6.63;;
2023;SDS011;1016;48.770;9.154;2023-02-07T15:42:14;21.77;;;7.00;;
2023;SDS011;1016;48.770;9.154;2023-02-07T15:44:46;24.03;;;6.53;;
2023;SDS011;1016;48.770;9.154;2023-02-07T15:50:37;23.30;;;6.83;;
2023;SDS011;1016;48.770;9.154;2023-02-07T15:52:39;23.77;;;6.20;;
2023;SDS011;1016;48.770;9.154;2023-02-07T15:55:17;23.60;;;6.40;;
2023;SDS011;1016;48.770;9.154;2023-02-07T15:57:45;22.60;;;6.40;;
2023;SDS011;1016;48.770;9.154;2023-02-07T16:00:20;25.57;;;6.63;;
2023;SDS011;1016;48.770;9.154;2023-02-07T16:02:52;21.17;;;6.30;;
2023;SDS011;1016;48.770;9.154;2023-02-07T16:05:28;22.87;;;6.00;;
2023;SDS011;1016;48.770;9.154;2023-02-07T16:07:56;20.60;;;5.83;;
2023;SDS011;1016;48.770;9.154;2023-02-07T16:12:51;22.60;;;6.27;;
2023;SDS011;1016;48.770;9.154;2023-02-07T16:15:24;20.53;;;5.30;;
2023;SDS011;1016;48.770;9.154;2023-02-07T16:17:52;22.80;;;5.60;;
2023;SDS011;1016;48.770;9.154;2023-02-07T16:20:19;23.00;;;6.40;;
2023;SDS011;1016;48.770;9.154;2023-02-07T16:22:45;21.53;;;5.93;;
2023;SDS011;1016;48.770;9.154;2023-02-07T16:25:15;23.23;;;6.70;;
2023;SDS011;1016;48.770;9.154;2023-02-07T16:27:50;21.00;;;6.30;;
2023;SDS011;1016;48.770;9.154;2023-02-07T16:30:20;21.77;;;5.20;;
2023;SDS011;1016;48.770;9.154;2023-02-07T16:32:49;21.17;;;6.37;;
2023;SDS011;1016;48.770;9.154;2023-02-07T16:35:15;22.57;;;6.27;;
2023;SDS011;1016;48.770;9.154;2023-02-07T16:37:49;23.30;;;5.00;;
2023;SDS011;1016;48.770;9.154;2023-02-07T16:40:15;20.60;;;5.20;;
2023;SDS011;1016;48.770;9.154;2023-02-07T16:42:42;21.47;;;5.80;;
2023;SDS011;1016;48.770;9.154;2023-02-07T16:45:15;26.20;;;5.40;;
2023;SDS011;1016;48.770;9.154;2023-02-07T16:47:50;29.50;;;11.70;;
2023;SDS011;1016;48.770;9.154;2023-02-07T16:50:17;20.90;;;5.40;;
2023;SDS011;1016;48.770;9.154;2023-02-07T16:52:46;20.50;;;4.80;;
2023;SDS011;1016;48.770;9.154;2023-02-07T16:55:13;24.67;;;5.77;;
2023;SDS011;1016;48.770;9.154;2023-02-07T16:57:39;21.33;;;5.50;;
2023;SDS011;1016;48.770;9.154;2023-02-07T17:00:07;20.40;;;5.90;;
2023;SDS011;1016;48.770;9.154;2023-02-07T17:02:37;21.97;;;5.90;;
2023;SDS011;1016;48.770;9.154;2023-02-07T17:05:02;23.40;;;6.23;;
2023;SDS011;1016;48.770;9.154;2023-02-07T17:07:28;22.40;;;6.70;;
2023;SDS011;1016;48.770;9.154;2023-02-07T17:09:54;21.67;;;6.20;;
2023;SDS011;1016;48.770;9.154;2023-02-07T17:12:20;22.37;;;6.07;;
2023;SDS011;1016;48.770;9.154;2023-02-07T17:14:46;22.40;;;6.20;;
2023;SDS011;1016;48.770;9.154;2023-02-07T17:17:12;23.63;;;6.30;;
2023;SDS011;1016;48.770;9.154;2023-02-07T17:19:37;28.63;;;7.60;;
2023;SDS011;1016;48.770;9.154;2023-02-07T17:22:03;24.33;;;7.97;;
2023;SDS011;1016;48.770;9.154;2023-02-07T17:24:28;23.23;;;6.93;;
2023;SDS011;1016;48.770;9.154;2023-02-07T17:26:55;22.90;;;6.50;;
2023;SDS011;1016;48.770;9.154;2023-02-07T17:29:21;21.90;;;6.63;;
2023;SDS011;1016;48.770;9.154;2023-02-07T17:31:47;22.73;;;6.40;;
2023;SDS011;1016;48.770;9.154;2023-02-07T17:34:13;21.27;;;5.57;;
2023;SDS011;1016;48.770;9.154;2023-02-07T17:36:39;24.57;;;6.40;;